首页
METAR-TAF:

METAR-TAF

机场 :

巴馬科, 马里共和国

巴馬科國際機場

纬度: 12-32N, 经度: 007-57W, 海拔: 380米

当前天气观测

该预报发布于28分钟前的14:00 UTC
风速9节,风向东转东北
温度 31°C
湿度 9%
气压 1013 hPa
能見度: 8000

METAR: GABS 221400Z 06009KT 8000 NSC 31/M05 Q1013 NOSIG

时间: 14:28 (14:28 UTC)

预报

该预报发布于3小时和3分钟前的11:25 UTC
预报有效从22日的 12点(UTC)到 23日的 18点(UTC)
风速8节,风向东北
能見度: 8000
几率 40% :
短暂存在
从 22日的 12点(UTC)到 22日的 16点(UTC)
能見度: 4000
浮尘
短暂存在
从 22日的 12点(UTC)到 22日的 16点(UTC)
风速18节,风向东转东北
几率 40% :
短暂存在
从 23日的 06点(UTC)到 23日的 12点(UTC)
能見度: 3000
浮尘
短暂存在
从 23日的 08点(UTC)到 23日的 16点(UTC)
风速18节,风向

TAF: GABS 221125Z 2212/2318 04008KT 8000 NSC PROB40 TEMPO 2212/2216 4000 DU TEMPO 2212/2216 06018KT PROB40 TEMPO 2306/2312 3000 DU TEMPO 2308/2316 08018KT

超过4000个机场的气象观测和天气预报(METAR&TAF报告)。

可查询的气象台以黄色和红色小点在地图上表示。

将鼠标移到小点上方,可查看气象台名称。

然后点击查看天气观测和预报。

如需切换地图:点击带黑十字的绿色按钮放大地图;点击带横线的绿色按钮缩小地图;或者点击绿色箭头查看邻近地区的地图。


METAR-TAF: